Time;durP1;ratioP1;P1;durP2;ratioP2;P2;SDS_P1;SDS_P2;PMS_P1;PMS_P2;Temp;Humidity;BMP_temperature;BMP_pressure;BME280_temperature;BME280_humidity;BME280_pressure;Samples;Min_cycle;Max_cycle;Signal;HPM_P1;HPM_P2
2020/12/08 00:01:37;;;;;;;20.50;11.90;;;2.10;45.20;;;;;;5005454;28;20080;-70
2020/12/08 00:04:04;;;;;;;20.38;12.32;;;2.20;45.40;;;;;;5011008;28;20056;-70
2020/12/08 00:06:31;;;;;;;22.00;12.40;;;2.10;45.80;;;;;;5007265;28;20050;-69
2020/12/08 00:08:58;;;;;;;19.73;11.80;;;2.10;46.30;;;;;;5010449;28;20491;-69
2020/12/08 00:11:25;;;;;;;23.52;12.02;;;2.10;46.20;;;;;;5010495;28;20053;-70
2020/12/08 00:13:52;;;;;;;21.52;12.35;;;2.10;46.50;;;;;;5009748;28;20046;-70
2020/12/08 00:16:19;;;;;;;18.85;11.82;;;2.10;46.40;;;;;;5008472;28;20132;-70
2020/12/08 00:18:46;;;;;;;20.98;12.15;;;2.10;46.60;;;;;;5010588;28;20609;-70
2020/12/08 00:21:13;;;;;;;21.25;12.07;;;2.10;46.90;;;;;;5010251;28;20053;-71
2020/12/08 00:23:39;;;;;;;19.90;11.48;;;2.20;47.10;;;;;;5003110;28;20038;-69
2020/12/08 00:26:06;;;;;;;21.73;12.63;;;2.10;47.20;;;;;;5010631;28;20491;-69
2020/12/08 00:28:33;;;;;;;22.75;12.63;;;2.20;47.00;;;;;;5011362;28;20124;-70
2020/12/08 00:31:00;;;;;;;23.00;13.15;;;2.20;47.70;;;;;;5010893;28;20045;-71
2020/12/08 00:33:28;;;;;;;20.48;12.27;;;2.30;47.70;;;;;;5013409;28;20114;-70
2020/12/08 00:35:58;;;;;;;19.60;11.38;;;2.30;47.00;;;;;;5014891;28;20053;-70
2020/12/08 00:38:26;;;;;;;19.77;11.85;;;2.30;46.20;;;;;;5014874;28;20050;-70
2020/12/08 00:40:53;;;;;;;21.15;12.25;;;2.30;46.50;;;;;;5014693;28;20045;-70
2020/12/08 00:43:19;;;;;;;25.05;13.32;;;2.30;46.50;;;;;;5014722;28;20500;-71
2020/12/08 00:45:47;;;;;;;21.77;12.55;;;2.20;46.50;;;;;;5008253;28;20049;-70
2020/12/08 00:48:14;;;;;;;21.80;12.50;;;2.20;47.00;;;;;;5014479;28;20086;-69
2020/12/08 00:50:41;;;;;;;22.40;12.63;;;2.20;47.60;;;;;;5014300;28;20129;-71
2020/12/08 00:53:08;;;;;;;23.45;12.95;;;2.30;47.30;;;;;;5014660;28;20053;-70
2020/12/08 00:55:35;;;;;;;23.02;12.13;;;2.30;46.90;;;;;;5014325;28;20045;-71
2020/12/08 00:58:01;;;;;;;22.13;12.07;;;2.30;46.60;;;;;;5014643;28;20407;-70
2020/12/08 01:00:28;;;;;;;20.95;12.15;;;2.40;47.60;;;;;;5013978;28;20496;-69
2020/12/08 01:02:55;;;;;;;23.83;12.60;;;2.40;48.00;;;;;;5014475;28;20054;-69
2020/12/08 01:05:22;;;;;;;21.10;12.40;;;2.40;47.90;;;;;;5013992;28;20050;-70
2020/12/08 01:07:50;;;;;;;22.27;12.38;;;2.50;48.00;;;;;;5014177;28;20053;-71
2020/12/08 01:10:17;;;;;;;20.85;11.65;;;2.40;47.80;;;;;;5010785;28;20050;-70
2020/12/08 01:12:43;;;;;;;20.70;12.18;;;2.40;48.10;;;;;;5014227;28;20056;-72
2020/12/08 01:15:11;;;;;;;21.90;12.32;;;2.40;48.00;;;;;;5013960;28;20046;-70
2020/12/08 01:17:37;;;;;;;22.92;12.80;;;2.40;47.70;;;;;;5013945;28;20050;-70
2020/12/08 01:20:05;;;;;;;24.25;13.65;;;2.50;47.00;;;;;;5014126;28;20056;-71
2020/12/08 01:22:31;;;;;;;26.05;13.88;;;2.50;46.70;;;;;;5013907;28;20068;-70
2020/12/08 01:24:59;;;;;;;24.35;13.75;;;2.60;46.00;;;;;;5013452;28;20045;-70
2020/12/08 01:27:26;;;;;;;24.92;13.88;;;2.60;46.00;;;;;;5013869;28;20104;-70
2020/12/08 01:29:53;;;;;;;26.75;14.68;;;2.60;46.20;;;;;;5013450;28;20050;-69
2020/12/08 01:32:20;;;;;;;25.52;14.23;;;2.60;45.90;;;;;;5014197;28;20049;-70
2020/12/08 01:34:46;;;;;;;24.83;14.35;;;2.60;45.60;;;;;;5012528;28;20048;-70
2020/12/08 01:37:13;;;;;;;29.23;13.75;;;2.50;46.70;;;;;;5014190;28;20411;-69
2020/12/08 01:39:40;;;;;;;25.30;14.27;;;2.60;46.10;;;;;;5013406;28;20061;-70
2020/12/08 01:42:08;;;;;;;27.45;15.25;;;2.50;46.50;;;;;;5013679;28;20069;-71
2020/12/08 01:44:34;;;;;;;26.95;14.90;;;2.50;46.60;;;;;;5012467;28;20045;-71
2020/12/08 01:47:01;;;;;;;25.13;13.90;;;2.50;46.70;;;;;;5013832;28;20061;-69
2020/12/08 01:49:28;;;;;;;25.58;14.48;;;2.60;46.10;;;;;;5012852;28;20058;-71
2020/12/08 01:51:55;;;;;;;27.80;15.00;;;2.60;45.30;;;;;;5010123;28;20416;-72
2020/12/08 01:54:23;;;;;;;27.90;16.23;;;2.50;46.20;;;;;;5012542;28;20070;-71
2020/12/08 01:56:49;;;;;;;27.00;14.18;;;2.60;46.00;;;;;;5011997;28;20054;-72
2020/12/08 01:59:17;;;;;;;27.58;15.70;;;2.50;46.30;;;;;;5012560;28;20546;-72
2020/12/08 02:01:44;;;;;;;27.35;14.75;;;2.50;46.10;;;;;;5011215;28;20045;-72
2020/12/08 02:04:10;;;;;;;26.05;15.40;;;2.60;46.00;;;;;;5012350;28;20050;-71
2020/12/08 02:06:37;;;;;;;28.65;15.63;;;2.50;46.10;;;;;;5012365;28;20056;-72
2020/12/08 02:09:04;;;;;;;26.52;14.55;;;2.50;46.80;;;;;;5012787;28;20056;-73
2020/12/08 02:11:31;;;;;;;28.05;15.93;;;2.50;46.80;;;;;;5011060;28;20515;-72
2020/12/08 02:13:58;;;;;;;27.42;14.80;;;2.50;46.80;;;;;;5011704;28;20042;-72
2020/12/08 02:16:26;;;;;;;27.48;15.43;;;2.50;46.40;;;;;;5011954;28;20046;-71
2020/12/08 02:18:54;;;;;;;26.10;14.77;;;2.50;46.40;;;;;;5012720;28;20056;-73
2020/12/08 02:21:29;;;;;;;29.60;16.08;;;2.50;45.70;;;;;;5011057;28;20079;-72
2020/12/08 02:23:56;;;;;;;29.08;15.48;;;2.50;46.00;;;;;;5011746;28;20046;-73
2020/12/08 02:26:23;;;;;;;30.83;16.23;;;2.50;46.20;;;;;;5010966;28;20507;-72
2020/12/08 02:28:51;;;;;;;27.55;15.48;;;2.50;45.70;;;;;;5012175;28;20156;-72
2020/12/08 02:31:17;;;;;;;28.65;15.52;;;2.60;45.70;;;;;;5010707;28;20053;-72
2020/12/08 02:33:44;;;;;;;27.90;15.00;;;2.60;44.90;;;;;;5011796;28;20049;-73
2020/12/08 02:36:13;;;;;;;27.00;15.38;;;2.50;45.30;;;;;;5012178;28;20133;-72
2020/12/08 02:38:41;;;;;;;29.48;15.43;;;2.50;44.80;;;;;;5012022;28;20052;-71
2020/12/08 02:41:08;;;;;;;29.85;15.55;;;2.50;44.70;;;;;;5009320;28;20056;-72
2020/12/08 02:43:34;;;;;;;28.73;15.50;;;2.40;44.90;;;;;;5011841;28;20053;-72
2020/12/08 02:46:03;;;;;;;27.23;14.55;;;2.50;45.40;;;;;;5011870;28;20526;-71
2020/12/08 02:48:30;;;;;;;28.67;16.05;;;2.50;45.10;;;;;;5010343;28;20053;-71
2020/12/08 02:50:59;;;;;;;27.77;15.55;;;2.50;44.60;;;;;;5010123;28;20050;-72
2020/12/08 02:53:26;;;;;;;30.23;16.02;;;2.50;44.70;;;;;;5010685;28;20619;-72
2020/12/08 02:55:54;;;;;;;30.13;15.23;;;2.50;44.20;;;;;;5010962;28;20100;-73
2020/12/08 02:58:21;;;;;;;30.05;16.27;;;2.40;44.10;;;;;;5011102;28;20041;-72
2020/12/08 03:00:47;;;;;;;28.67;15.15;;;2.50;44.60;;;;;;5010405;28;20054;-71
2020/12/08 03:03:14;;;;;;;29.98;15.27;;;2.50;44.20;;;;;;5010137;28;20065;-70
2020/12/08 03:05:41;;;;;;;28.25;14.98;;;2.50;44.40;;;;;;5010976;28;20042;-72
2020/12/08 03:08:08;;;;;;;28.98;15.65;;;2.50;44.70;;;;;;5011514;28;20535;-73
2020/12/08 03:10:35;;;;;;;27.60;15.75;;;2.60;44.30;;;;;;5010097;28;20558;-72
2020/12/08 03:13:03;;;;;;;30.40;16.33;;;2.60;44.30;;;;;;5010275;28;20046;-72
2020/12/08 03:15:30;;;;;;;31.48;15.80;;;2.50;44.20;;;;;;5011037;28;20054;-72
2020/12/08 03:17:57;;;;;;;27.15;15.05;;;2.50;44.20;;;;;;5011491;28;20045;-71
2020/12/08 03:20:25;;;;;;;27.10;15.50;;;2.40;44.40;;;;;;5008671;28;20042;-71
2020/12/08 03:22:52;;;;;;;32.45;16.85;;;2.40;45.70;;;;;;5010865;28;20048;-72
2020/12/08 03:25:19;;;;;;;31.70;16.55;;;2.30;45.90;;;;;;5010761;28;20057;-71
2020/12/08 03:27:46;;;;;;;28.60;16.23;;;2.30;46.70;;;;;;5010142;28;20049;-72
2020/12/08 03:30:13;;;;;;;32.33;16.60;;;2.20;47.20;;;;;;5009839;28;20045;-72
2020/12/08 03:32:40;;;;;;;29.23;16.42;;;2.20;47.90;;;;;;5011068;28;20116;-73
2020/12/08 03:35:07;;;;;;;31.10;15.93;;;2.10;48.30;;;;;;5009109;28;20397;-71
2020/12/08 03:37:34;;;;;;;29.75;15.48;;;2.10;49.10;;;;;;5010966;28;20073;-72
2020/12/08 03:40:01;;;;;;;29.65;16.00;;;2.10;49.30;;;;;;5009719;28;20135;-71
2020/12/08 03:42:28;;;;;;;30.33;16.60;;;2.00;50.30;;;;;;5010948;28;20078;-72
2020/12/08 03:44:55;;;;;;;31.75;17.58;;;2.10;51.80;;;;;;5010903;28;20042;-72
2020/12/08 03:47:23;;;;;;;31.75;17.63;;;2.10;51.10;;;;;;5011214;28;20056;-70
2020/12/08 03:49:50;;;;;;;28.63;16.02;;;2.10;51.20;;;;;;5010205;28;20054;-72
2020/12/08 03:52:17;;;;;;;31.50;16.98;;;2.00;51.10;;;;;;5010532;28;20071;-72
2020/12/08 03:54:44;;;;;;;33.83;16.85;;;2.00;51.60;;;;;;5010556;28;20497;-71
2020/12/08 03:57:10;;;;;;;30.63;16.33;;;1.90;51.10;;;;;;5010944;28;20052;-73
2020/12/08 03:59:37;;;;;;;30.80;16.70;;;1.80;51.60;;;;;;5010187;28;20046;-73
2020/12/08 04:02:04;;;;;;;31.30;16.20;;;1.80;52.40;;;;;;5010426;28;20081;-71
2020/12/08 04:04:32;;;;;;;29.75;16.40;;;1.80;52.70;;;;;;5010381;28;20120;-71
2020/12/08 04:06:59;;;;;;;33.08;17.38;;;1.70;53.00;;;;;;5011007;28;20042;-72
2020/12/08 04:09:26;;;;;;;31.80;16.73;;;1.70;53.60;;;;;;5014047;28;20668;-73
2020/12/08 04:11:53;;;;;;;31.77;17.42;;;1.70;53.70;;;;;;5014404;28;20046;-71
2020/12/08 04:14:20;;;;;;;30.63;16.10;;;1.80;54.10;;;;;;5014573;28;20045;-72
2020/12/08 04:16:46;;;;;;;35.92;17.38;;;1.70;53.30;;;;;;5013050;28;20052;-71
2020/12/08 04:19:16;;;;;;;35.20;18.63;;;1.70;53.50;;;;;;5014842;28;20468;-72
2020/12/08 04:21:44;;;;;;;34.40;18.20;;;1.80;52.60;;;;;;5010636;28;20046;-70
2020/12/08 04:24:11;;;;;;;32.35;17.00;;;1.80;51.70;;;;;;5014190;28;20495;-71
2020/12/08 04:26:38;;;;;;;29.85;16.02;;;1.70;52.30;;;;;;5014372;28;20445;-71
2020/12/08 04:29:05;;;;;;;33.67;16.70;;;1.70;51.60;;;;;;5014388;28;20056;-70
2020/12/08 04:31:31;;;;;;;32.55;16.27;;;1.70;51.60;;;;;;5011514;28;20415;-72
2020/12/08 04:33:59;;;;;;;32.75;17.00;;;1.80;51.40;;;;;;5014461;28;20042;-72
2020/12/08 04:36:25;;;;;;;34.47;17.20;;;1.80;50.50;;;;;;5014491;28;20057;-71
2020/12/08 04:38:53;;;;;;;38.10;18.30;;;1.70;50.50;;;;;;5014282;28;20045;-71
2020/12/08 04:41:22;;;;;;;32.95;17.52;;;1.60;51.00;;;;;;5012925;28;20057;-71
2020/12/08 04:43:50;;;;;;;33.40;17.85;;;1.70;51.60;;;;;;5013970;28;20155;-72
2020/12/08 04:46:19;;;;;;;34.22;18.17;;;1.60;51.60;;;;;;5012631;28;20411;-72
2020/12/08 04:48:47;;;;;;;33.08;17.92;;;1.60;52.30;;;;;;5013911;28;20137;-71
2020/12/08 04:51:14;;;;;;;36.67;18.67;;;1.60;53.00;;;;;;5012613;28;20045;-71
2020/12/08 04:53:41;;;;;;;35.88;18.35;;;1.50;53.30;;;;;;5012230;28;20060;-71
2020/12/08 04:56:09;;;;;;;31.05;17.08;;;1.60;53.30;;;;;;5013941;28;21276;-71
2020/12/08 05:02:23;;;;;;;38.58;18.80;;;1.60;52.20;;;;;;5011594;28;20453;-73
2020/12/08 05:04:54;;;;;;;34.00;18.27;;;1.60;51.50;;;;;;5013041;28;20049;-72
2020/12/08 05:07:26;;;;;;;34.03;17.95;;;1.60;51.50;;;;;;5014009;28;20050;-72
2020/12/08 05:09:54;;;;;;;34.15;18.05;;;1.60;51.90;;;;;;5012184;28;20053;-72
2020/12/08 05:12:22;;;;;;;35.58;17.40;;;1.60;52.30;;;;;;5013788;28;20053;-71
2020/12/08 05:14:49;;;;;;;38.88;18.83;;;1.60;52.50;;;;;;5012931;28;20046;-71
2020/12/08 05:17:23;;;;;;;30.15;15.82;;;1.70;51.60;;;;;;5012525;28;20060;-71
2020/12/08 05:20:01;;;;;;;33.85;17.42;;;1.70;51.50;;;;;;5009862;28;20524;-73
2020/12/08 05:22:28;;;;;;;34.53;18.13;;;1.70;51.20;;;;;;5013273;28;20050;-71
2020/12/08 05:24:55;;;;;;;34.95;17.17;;;1.70;51.30;;;;;;5012827;28;20046;-72
2020/12/08 05:27:23;;;;;;;33.78;17.88;;;1.70;49.70;;;;;;5013567;28;20042;-71
2020/12/08 05:29:49;;;;;;;35.65;17.30;;;1.70;49.20;;;;;;5011916;28;20507;-71
2020/12/08 05:32:24;;;;;;;33.03;16.77;;;1.80;48.70;;;;;;5013213;28;20050;-72
2020/12/08 05:34:55;;;;;;;30.48;16.30;;;1.80;48.60;;;;;;5012577;28;20038;-71
2020/12/08 05:37:23;;;;;;;33.22;17.00;;;1.80;47.80;;;;;;5012547;28;20045;-72
2020/12/08 05:39:50;;;;;;;28.75;16.38;;;1.70;48.50;;;;;;5011764;28;20045;-72
2020/12/08 05:42:19;;;;;;;34.75;18.38;;;1.70;49.30;;;;;;5012559;28;20484;-70
2020/12/08 05:44:51;;;;;;;35.80;17.95;;;1.70;49.70;;;;;;5012451;28;20061;-72
2020/12/08 05:47:19;;;;;;;33.78;17.27;;;1.70;51.50;;;;;;5012991;28;20056;-71
2020/12/08 05:49:46;;;;;;;33.00;16.75;;;1.70;50.70;;;;;;5011615;28;20050;-70
2020/12/08 05:52:19;;;;;;;33.00;16.98;;;1.70;50.20;;;;;;5012987;28;20054;-71
2020/12/08 05:54:45;;;;;;;36.90;17.88;;;1.70;50.80;;;;;;5012345;28;20415;-71
2020/12/08 05:57:14;;;;;;;36.35;18.15;;;1.70;49.10;;;;;;5011198;28;20054;-72
2020/12/08 05:59:41;;;;;;;36.35;17.25;;;1.70;49.30;;;;;;5011861;28;20050;-71
2020/12/08 06:02:09;;;;;;;34.08;17.67;;;1.60;49.70;;;;;;5012808;28;20050;-73
2020/12/08 06:04:40;;;;;;;40.28;19.02;;;1.70;49.70;;;;;;5010892;28;20054;-72
2020/12/08 06:07:07;;;;;;;36.67;19.02;;;1.70;49.60;;;;;;5012546;28;20046;-71
2020/12/08 06:09:34;;;;;;;41.03;19.65;;;1.60;49.10;;;;;;5010189;28;20050;-71
2020/12/08 06:12:02;;;;;;;33.08;18.52;;;1.70;51.10;;;;;;5011503;28;20050;-73
2020/12/08 06:14:34;;;;;;;34.05;18.27;;;1.70;48.80;;;;;;5011908;28;20057;-73
2020/12/08 06:17:03;;;;;;;34.63;17.38;;;1.80;48.80;;;;;;5011603;28;20080;-73
2020/12/08 06:19:32;;;;;;;32.63;17.17;;;1.70;48.60;;;;;;5011713;28;20058;-71
2020/12/08 06:22:00;;;;;;;34.72;17.42;;;1.70;47.60;;;;;;5011926;28;20050;-72
2020/12/08 06:24:27;;;;;;;37.28;18.10;;;1.70;48.50;;;;;;5011349;28;20526;-73
2020/12/08 06:26:54;;;;;;;35.28;18.52;;;1.80;47.60;;;;;;5011926;28;20095;-73
2020/12/08 06:29:21;;;;;;;35.05;17.27;;;1.80;46.70;;;;;;5011268;28;20476;-72
2020/12/08 06:31:50;;;;;;;37.03;18.83;;;1.80;47.20;;;;;;5010736;28;20053;-72
2020/12/08 06:34:20;;;;;;;37.20;18.17;;;1.80;46.70;;;;;;5010242;28;20071;-71
2020/12/08 06:36:48;;;;;;;36.63;17.73;;;1.80;47.00;;;;;;5011540;28;20042;-73
2020/12/08 06:39:16;;;;;;;35.58;18.15;;;1.80;46.40;;;;;;5009606;28;20041;-73
2020/12/08 06:41:44;;;;;;;37.83;17.83;;;1.80;46.30;;;;;;5010778;28;20050;-71
2020/12/08 06:44:17;;;;;;;36.20;18.60;;;1.80;46.90;;;;;;5011092;28;20077;-70
2020/12/08 06:46:55;;;;;;;38.20;18.35;;;1.80;48.20;;;;;;5010671;28;20414;-73
2020/12/08 06:49:25;;;;;;;36.45;18.40;;;1.70;46.80;;;;;;5010758;28;20045;-74
2020/12/08 06:51:57;;;;;;;35.40;17.33;;;1.70;48.30;;;;;;5011054;28;20128;-73
2020/12/08 06:54:25;;;;;;;36.78;18.50;;;1.70;47.50;;;;;;5009702;28;20046;-72
2020/12/08 06:56:59;;;;;;;34.10;18.35;;;1.60;47.60;;;;;;5011268;28;20052;-72
2020/12/08 06:59:28;;;;;;;37.17;17.73;;;1.60;47.50;;;;;;5009736;28;20833;-71
2020/12/08 07:01:56;;;;;;;36.72;18.42;;;1.50;47.90;;;;;;5010942;28;20053;-73
2020/12/08 07:04:27;;;;;;;34.75;18.00;;;1.60;48.10;;;;;;5009596;28;20452;-72
2020/12/08 07:06:54;;;;;;;39.10;19.42;;;1.50;48.50;;;;;;5011624;28;20046;-71
2020/12/08 07:09:23;;;;;;;38.92;18.98;;;1.50;49.00;;;;;;5010914;28;20050;-73
2020/12/08 07:11:59;;;;;;;40.35;17.65;;;1.40;48.70;;;;;;5010648;28;20072;-71
2020/12/08 07:14:28;;;;;;;36.88;18.40;;;1.50;49.30;;;;;;5010414;28;20063;-71
2020/12/08 07:16:55;;;;;;;38.50;18.65;;;1.40;50.20;;;;;;5009452;28;20042;-73
2020/12/08 07:19:22;;;;;;;42.13;18.45;;;1.40;50.80;;;;;;5010397;28;20058;-71
2020/12/08 07:21:57;;;;;;;39.88;18.00;;;1.40;51.30;;;;;;5010899;28;20042;-71
2020/12/08 07:24:25;;;;;;;34.53;16.30;;;1.50;51.00;;;;;;5009995;28;20058;-72
2020/12/08 07:26:58;;;;;;;33.10;17.45;;;1.50;48.60;;;;;;5010765;28;20046;-71
2020/12/08 07:29:25;;;;;;;39.90;19.17;;;1.50;48.40;;;;;;5010224;28;20496;-71
2020/12/08 07:31:53;;;;;;;39.42;20.42;;;1.50;48.90;;;;;;5009090;28;20148;-71
2020/12/08 07:34:20;;;;;;;35.60;18.13;;;1.50;47.90;;;;;;5010778;28;20052;-72
2020/12/08 07:36:47;;;;;;;38.22;19.08;;;1.40;48.90;;;;;;5010590;28;20053;-72
2020/12/08 07:39:18;;;;;;;37.47;19.00;;;1.50;47.60;;;;;;5008810;28;20052;-71
2020/12/08 07:41:46;;;;;;;35.88;18.08;;;1.60;48.70;;;;;;5009237;28;20041;-72
2020/12/08 07:44:16;;;;;;;35.40;16.98;;;1.60;46.70;;;;;;5009976;28;20128;-72
2020/12/08 07:46:48;;;;;;;38.13;18.48;;;1.70;45.50;;;;;;5010518;28;20054;-74
2020/12/08 07:49:15;;;;;;;35.20;17.77;;;1.70;43.60;;;;;;5010331;28;20042;-71
2020/12/08 07:51:42;;;;;;;50.55;26.13;;;1.70;44.90;;;;;;5010460;28;20050;-72
2020/12/08 07:54:09;;;;;;;35.05;17.95;;;1.70;45.20;;;;;;5009982;28;20057;-70
2020/12/08 07:56:37;;;;;;;35.83;18.75;;;1.80;43.70;;;;;;5010256;28;20535;-72
2020/12/08 07:59:05;;;;;;;37.38;17.42;;;1.70;42.50;;;;;;5006935;28;20057;-72
2020/12/08 08:01:38;;;;;;;38.55;19.20;;;1.60;43.40;;;;;;5009482;28;20050;-71
2020/12/08 08:04:05;;;;;;;44.60;17.90;;;1.70;43.50;;;;;;5010012;28;20050;-72
2020/12/08 08:06:32;;;;;;;36.30;17.38;;;1.70;43.40;;;;;;5009374;28;20912;-74
2020/12/08 08:08:59;;;;;;;38.13;18.05;;;1.70;43.50;;;;;;5010198;28;20056;-72
2020/12/08 08:11:26;;;;;;;39.75;18.25;;;1.70;43.50;;;;;;5010196;28;20050;-71
2020/12/08 08:13:53;;;;;;;33.35;17.33;;;1.70;43.50;;;;;;5010164;28;20108;-71
2020/12/08 08:16:21;;;;;;;38.38;18.40;;;1.70;43.60;;;;;;5009895;28;20474;-71
2020/12/08 08:18:48;;;;;;;36.13;18.17;;;1.70;43.50;;;;;;5010545;28;20065;-70
2020/12/08 08:21:14;;;;;;;37.70;19.10;;;1.70;42.90;;;;;;5009205;28;20042;-72
2020/12/08 08:23:41;;;;;;;36.35;18.20;;;1.70;42.60;;;;;;5006214;28;20046;-74
2020/12/08 08:26:09;;;;;;;38.10;19.15;;;1.70;42.30;;;;;;5009185;28;20042;-73
2020/12/08 08:28:36;;;;;;;35.75;18.73;;;1.70;41.50;;;;;;5008956;28;20061;-70
2020/12/08 08:31:03;;;;;;;36.40;18.65;;;1.70;41.60;;;;;;5006239;28;20112;-72
2020/12/08 08:33:31;;;;;;;33.33;17.58;;;1.70;40.90;;;;;;5010463;28;20053;-72
2020/12/08 08:35:58;;;;;;;31.52;16.02;;;1.80;40.60;;;;;;5009482;28;20046;-75
2020/12/08 08:38:26;;;;;;;33.20;17.58;;;1.80;41.80;;;;;;5008557;28;20050;-71
2020/12/08 08:40:54;;;;;;;34.90;16.92;;;1.70;42.10;;;;;;5008949;28;20085;-73
2020/12/08 08:43:21;;;;;;;30.33;15.75;;;1.80;42.90;;;;;;5010275;28;20049;-72
2020/12/08 08:45:50;;;;;;;36.20;17.02;;;1.80;42.20;;;;;;5007945;28;20041;-73
2020/12/08 08:48:17;;;;;;;37.05;18.88;;;1.80;41.20;;;;;;5010580;28;20061;-72
2020/12/08 08:50:45;;;;;;;37.40;18.75;;;1.70;42.60;;;;;;5008942;28;20053;-73
2020/12/08 08:53:12;;;;;;;37.35;19.35;;;1.70;43.60;;;;;;5009104;28;20057;-73
2020/12/08 08:55:38;;;;;;;37.40;17.73;;;1.80;43.60;;;;;;5013542;28;20060;-71
2020/12/08 08:58:12;;;;;;;34.30;18.55;;;1.70;42.10;;;;;;5012833;28;20104;-71
2020/12/08 09:00:39;;;;;;;35.70;18.50;;;1.70;43.10;;;;;;5012502;28;20046;-71
2020/12/08 09:03:08;;;;;;;33.40;17.17;;;1.70;41.70;;;;;;5012583;28;20068;-71
2020/12/08 09:05:35;;;;;;;36.85;18.48;;;1.70;42.60;;;;;;5012914;28;20050;-70
2020/12/08 09:08:03;;;;;;;35.55;18.50;;;1.70;41.70;;;;;;5013629;28;20480;-72
2020/12/08 09:10:31;;;;;;;34.88;17.83;;;1.90;41.60;;;;;;5010935;28;20054;-73
2020/12/08 09:12:57;;;;;;;35.20;18.83;;;1.80;40.80;;;;;;5013231;28;20058;-72
2020/12/08 09:15:25;;;;;;;36.00;18.00;;;2.10;41.10;;;;;;5013079;28;20053;-73
2020/12/08 09:17:52;;;;;;;36.58;18.45;;;2.10;38.30;;;;;;5013350;28;20423;-71
2020/12/08 09:20:19;;;;;;;32.40;17.25;;;2.10;36.80;;;;;;5012144;28;20526;-72
2020/12/08 09:22:46;;;;;;;35.03;17.13;;;2.20;36.30;;;;;;5013900;28;20137;-71
2020/12/08 09:25:14;;;;;;;35.40;16.73;;;2.20;36.90;;;;;;5012490;28;20558;-71
2020/12/08 09:27:41;;;;;;;35.40;18.45;;;2.10;37.10;;;;;;5012457;28;20052;-73
2020/12/08 09:30:08;;;;;;;34.15;17.38;;;2.20;38.70;;;;;;5011723;28;20053;-72
2020/12/08 09:32:35;;;;;;;34.00;17.65;;;2.20;37.50;;;;;;5011863;28;20049;-72
2020/12/08 09:35:02;;;;;;;32.72;17.65;;;2.20;38.20;;;;;;5011605;28;20068;-71
2020/12/08 09:37:29;;;;;;;34.15;17.10;;;2.20;37.70;;;;;;5013382;28;20061;-73
2020/12/08 09:39:56;;;;;;;35.78;17.80;;;2.20;37.50;;;;;;5011302;28;20602;-72
2020/12/08 09:42:24;;;;;;;35.63;18.05;;;2.30;37.80;;;;;;5011530;28;20500;-71
2020/12/08 09:44:51;;;;;;;33.00;17.30;;;2.30;35.80;;;;;;5013001;28;20049;-73
2020/12/08 09:47:18;;;;;;;34.47;17.45;;;2.30;35.80;;;;;;5013365;28;20077;-74
2020/12/08 09:49:45;;;;;;;34.40;17.35;;;2.30;37.00;;;;;;5011707;28;20128;-71
2020/12/08 09:52:13;;;;;;;34.30;18.08;;;2.40;36.60;;;;;;5013577;28;20177;-72
2020/12/08 09:54:40;;;;;;;34.72;16.63;;;2.40;35.90;;;;;;5012700;28;20050;-72
2020/12/08 09:57:07;;;;;;;32.47;17.40;;;2.40;35.90;;;;;;5011235;28;20052;-71
2020/12/08 09:59:35;;;;;;;35.55;17.52;;;2.50;36.00;;;;;;5011380;28;20056;-71
2020/12/08 10:02:03;;;;;;;32.25;17.05;;;2.50;35.20;;;;;;5011523;28;20053;-72
2020/12/08 10:04:30;;;;;;;32.60;17.27;;;2.70;34.40;;;;;;5009771;28;20053;-73
2020/12/08 10:06:57;;;;;;;34.65;18.17;;;2.70;32.60;;;;;;5012009;28;20053;-72
2020/12/08 10:09:24;;;;;;;33.67;17.50;;;2.70;33.90;;;;;;5011112;28;20129;-71
2020/12/08 10:11:52;;;;;;;30.27;16.67;;;2.80;34.20;;;;;;5012128;28;20046;-71
2020/12/08 10:14:20;;;;;;;32.20;16.95;;;2.80;31.70;;;;;;5011564;28;20077;-71
2020/12/08 10:16:50;;;;;;;34.45;17.27;;;2.80;31.40;;;;;;5012877;28;20042;-73
2020/12/08 10:19:19;;;;;;;33.63;16.42;;;2.90;32.10;;;;;;5010453;28;20050;-70
2020/12/08 10:21:46;;;;;;;37.38;16.98;;;2.80;31.50;;;;;;5012410;28;20412;-72
2020/12/08 10:24:13;;;;;;;32.70;17.08;;;2.90;32.10;;;;;;5012120;28;20071;-73
2020/12/08 10:26:40;;;;;;;30.15;15.95;;;3.00;30.40;;;;;;5012588;28;20046;-71
2020/12/08 10:29:07;;;;;;;31.48;16.33;;;3.00;29.60;;;;;;5012450;28;20045;-72
2020/12/08 10:31:34;;;;;;;34.50;17.45;;;3.00;29.50;;;;;;5011985;28;20057;-72
2020/12/08 10:34:01;;;;;;;34.17;16.42;;;3.00;30.00;;;;;;5012220;28;20056;-72
2020/12/08 10:36:29;;;;;;;31.20;16.33;;;3.10;29.10;;;;;;5012608;28;20116;-71
2020/12/08 10:38:55;;;;;;;29.88;15.30;;;3.20;28.60;;;;;;5010915;28;20173;-73
2020/12/08 10:41:23;;;;;;;28.48;14.98;;;3.20;28.60;;;;;;5010693;28;20500;-72
2020/12/08 10:43:50;;;;;;;31.23;17.33;;;3.20;28.60;;;;;;5011505;28;20046;-71
2020/12/08 10:46:17;;;;;;;34.83;17.20;;;3.40;28.20;;;;;;5011339;28;20042;-70
2020/12/08 10:48:44;;;;;;;32.17;16.38;;;3.50;27.50;;;;;;5009022;28;20054;-71
2020/12/08 10:51:11;;;;;;;26.50;15.18;;;3.50;26.90;;;;;;5010415;28;20045;-72
2020/12/08 10:53:38;;;;;;;28.85;16.30;;;3.60;26.50;;;;;;5010952;28;20049;-69
2020/12/08 10:56:09;;;;;;;28.20;15.38;;;3.70;26.00;;;;;;5010375;28;20041;-72
2020/12/08 11:06:11;;;;;;;29.73;14.85;;;3.70;25.20;;;;;;5008563;28;20831;-71
2020/12/08 11:08:38;;;;;;;26.80;14.10;;;3.80;24.30;;;;;;5010282;28;20518;-71
2020/12/08 11:11:06;;;;;;;27.50;15.45;;;3.90;24.80;;;;;;5010448;28;20129;-70
2020/12/08 11:13:33;;;;;;;29.90;14.75;;;3.90;24.50;;;;;;5011146;28;20064;-70
2020/12/08 11:16:03;;;;;;;26.38;14.70;;;3.90;22.30;;;;;;5009661;28;20041;-70
2020/12/08 11:18:34;;;;;;;27.67;15.48;;;3.90;22.80;;;;;;5010854;28;20050;-70
2020/12/08 11:21:02;;;;;;;29.20;15.85;;;4.00;22.40;;;;;;5009007;28;20424;-70
2020/12/08 11:23:29;;;;;;;27.58;15.80;;;4.10;22.50;;;;;;5010809;28;20061;-70
2020/12/08 11:25:56;;;;;;;30.50;16.42;;;4.20;22.50;;;;;;5009043;28;20042;-70
2020/12/08 11:28:23;;;;;;;28.05;15.15;;;4.20;22.50;;;;;;5009393;28;20049;-72
2020/12/08 11:30:50;;;;;;;25.02;13.98;;;4.10;21.40;;;;;;5009808;28;20048;-70
2020/12/08 11:33:27;;;;;;;25.48;14.73;;;4.10;21.60;;;;;;5011154;28;20411;-69
2020/12/08 11:35:55;;;;;;;24.48;14.13;;;4.20;21.80;;;;;;5011181;28;20044;-70
2020/12/08 11:38:22;;;;;;;27.10;14.35;;;4.10;22.10;;;;;;5009055;28;20056;-69
2020/12/08 11:40:50;;;;;;;28.30;15.15;;;4.10;21.20;;;;;;5009579;28;20045;-70
2020/12/08 11:43:17;;;;;;;24.42;13.57;;;4.10;21.30;;;;;;5010332;28;20144;-68
2020/12/08 11:45:43;;;;;;;25.55;14.35;;;4.10;20.90;;;;;;5009296;28;20046;-70
2020/12/08 11:48:18;;;;;;;24.60;14.40;;;4.10;21.00;;;;;;5010598;28;20493;-70
2020/12/08 11:50:45;;;;;;;28.25;15.25;;;4.10;21.50;;;;;;5009315;28;20555;-70
2020/12/08 11:53:12;;;;;;;26.20;14.30;;;4.10;20.90;;;;;;5011737;28;20071;-69
2020/12/08 11:55:38;;;;;;;25.95;13.32;;;4.30;21.40;;;;;;5011162;28;20065;-70
2020/12/08 11:58:06;;;;;;;24.20;12.65;;;4.30;19.50;;;;;;5011075;28;20128;-70
2020/12/08 12:00:33;;;;;;;24.35;13.45;;;4.30;18.30;;;;;;5010001;28;20499;-70
2020/12/08 12:03:00;;;;;;;25.77;13.73;;;4.40;18.50;;;;;;5011547;28;20050;-73
2020/12/08 12:05:27;;;;;;;23.02;13.88;;;4.50;18.70;;;;;;5009985;28;20049;-72
2020/12/08 12:07:54;;;;;;;24.90;13.88;;;4.40;20.10;;;;;;5011540;28;20049;-71
2020/12/08 12:10:21;;;;;;;28.05;15.57;;;4.40;20.10;;;;;;5009652;28;20056;-71
2020/12/08 12:12:48;;;;;;;25.42;13.82;;;4.50;20.30;;;;;;5010787;28;20129;-72
2020/12/08 12:15:16;;;;;;;25.50;13.93;;;4.60;19.60;;;;;;5011390;28;20053;-72
2020/12/08 12:17:43;;;;;;;25.88;13.45;;;4.60;20.00;;;;;;5011425;28;20420;-70
2020/12/08 12:20:10;;;;;;;24.83;14.98;;;4.50;19.60;;;;;;5009287;28;20046;-70
2020/12/08 12:22:37;;;;;;;22.42;13.05;;;4.50;19.80;;;;;;5005400;28;20042;-69
2020/12/08 12:25:06;;;;;;;28.33;15.25;;;4.50;19.30;;;;;;5008167;28;20050;-70
2020/12/08 12:27:33;;;;;;;26.52;14.20;;;4.50;19.10;;;;;;5000973;28;20046;-69
2020/12/08 12:30:00;;;;;;;24.65;13.63;;;4.50;19.30;;;;;;5010303;28;20045;-71
2020/12/08 12:32:28;;;;;;;25.15;13.70;;;4.50;20.00;;;;;;5012256;28;20045;-70
2020/12/08 12:34:55;;;;;;;28.00;14.70;;;4.50;20.60;;;;;;5012564;28;20470;-70
2020/12/08 12:37:23;;;;;;;24.92;14.65;;;4.50;21.20;;;;;;5011364;28;20062;-69
2020/12/08 12:39:50;;;;;;;25.20;14.73;;;4.60;20.60;;;;;;5010579;28;20049;-69
2020/12/08 12:42:18;;;;;;;25.92;14.48;;;4.50;20.80;;;;;;5013178;28;20050;-69
2020/12/08 12:44:46;;;;;;;22.98;13.75;;;4.50;20.80;;;;;;5011724;28;20131;-69
2020/12/08 12:47:13;;;;;;;24.88;15.05;;;4.60;21.10;;;;;;5008291;28;20388;-70
2020/12/08 12:49:42;;;;;;;28.15;14.88;;;4.50;20.70;;;;;;5011637;28;20060;-69